createdAt,value
2023-04-27T00:03:12.758Z,98367.44
2023-04-27T00:08:15.554Z,98414.16
2023-04-27T00:13:17.993Z,98472.97
2023-04-27T00:18:20.872Z,98303.50
2023-04-27T00:23:23.542Z,98259.41
2023-04-27T00:28:25.966Z,98291.44
2023-04-27T00:33:28.534Z,98581.25
2023-04-27T00:38:31.346Z,98350.25
2023-04-27T00:43:42.278Z,98258.56
2023-04-27T00:48:44.965Z,97962.31
2023-04-27T00:53:47.338Z,98479.16
2023-04-27T00:58:51.049Z,98600.41
2023-04-27T01:03:55.107Z,98474.00
2023-04-27T01:08:58.747Z,98319.13
2023-04-27T01:14:07.398Z,98525.09
2023-04-27T01:19:09.821Z,98138.41
2023-04-27T01:24:12.342Z,98352.84
2023-04-27T01:29:15.040Z,98265.50
2023-04-27T01:34:17.571Z,98507.81
2023-04-27T01:39:23.212Z,98532.94
2023-04-27T01:44:25.788Z,98591.81
2023-04-27T01:49:29.881Z,98598.75
2023-04-27T01:54:32.360Z,98608.28
2023-04-27T01:59:36.091Z,98619.56
2023-04-27T02:04:39.634Z,98603.13
2023-04-27T02:09:42.129Z,98595.31
2023-04-27T02:14:46.393Z,98623.06
2023-04-27T02:19:48.766Z,98522.53
2023-04-27T02:24:51.273Z,98556.28
2023-04-27T02:29:54.138Z,98598.75
2023-04-27T02:34:58.718Z,98649.91
2023-04-27T02:40:07.375Z,98241.97
2023-04-27T02:45:10.556Z,98343.25
2023-04-27T02:50:14.107Z,98284.38
2023-04-27T02:55:16.865Z,98598.75
2023-04-27T03:00:20.200Z,98508.59
2023-04-27T03:05:23.228Z,98581.41
2023-04-27T03:10:25.672Z,98524.19
2023-04-27T03:15:28.223Z,98453.16
2023-04-27T03:20:31.204Z,98345.72
2023-04-27T03:25:33.741Z,98531.09
2023-04-27T03:30:36.329Z,98656.84
2023-04-27T03:35:38.656Z,98552.81
2023-04-27T03:40:41.744Z,98608.31
2023-04-27T03:45:44.277Z,98188.44
2023-04-27T03:50:47.210Z,98558.91
2023-04-27T03:55:51.074Z,98675.03
2023-04-27T04:00:54.970Z,98302.66
2023-04-27T04:05:57.500Z,98612.63
2023-04-27T04:11:00.168Z,98589.13
2023-04-27T04:16:09.400Z,98705.16
2023-04-27T04:21:11.928Z,98572.56
2023-04-27T04:26:15.268Z,98738.00
2023-04-27T04:31:18.667Z,98402.09
2023-04-27T04:36:21.087Z,98568.13
2023-04-27T04:41:25.965Z,98453.78
2023-04-27T04:46:28.910Z,98709.88
2023-04-27T04:51:32.469Z,98658.50
2023-04-27T04:56:35.428Z,98715.31
2023-04-27T05:01:39.061Z,98648.50
2023-04-27T05:06:41.726Z,98563.53
2023-04-27T05:11:44.193Z,98694.66
2023-04-27T05:16:49.334Z,98598.47
2023-04-27T05:21:51.937Z,98650.81
2023-04-27T05:26:55.745Z,98715.31
2023-04-27T05:31:58.448Z,98327.94
2023-04-27T05:37:00.863Z,98583.97
2023-04-27T05:42:03.428Z,98717.97
2023-04-27T05:47:06.338Z,98740.06
2023-04-27T05:52:08.833Z,98710.78
2023-04-27T05:57:12.526Z,98577.16
2023-04-27T06:02:15.087Z,98728.44
2023-04-27T06:07:17.488Z,98669.03
2023-04-27T06:12:19.982Z,98611.53
2023-04-27T06:17:22.718Z,98636.13
2023-04-27T06:22:25.216Z,98569.31
2023-04-27T06:27:27.673Z,98543.69
2023-04-27T06:32:30.086Z,98636.09
2023-04-27T06:37:32.884Z,98683.75
2023-04-27T06:42:35.579Z,98733.75
2023-04-27T06:47:38.272Z,98719.56
2023-04-27T06:52:40.823Z,98673.38
2023-04-27T06:57:43.220Z,98668.69
2023-04-27T07:02:45.709Z,98450.84
2023-04-27T07:07:48.216Z,98671.09
2023-04-27T07:12:50.675Z,98682.22
2023-04-27T07:17:54.610Z,98707.50
2023-04-27T07:22:57.039Z,98689.19
2023-04-27T07:28:00.153Z,98715.31
2023-04-27T07:33:02.919Z,98676.81
2023-04-27T07:38:05.333Z,98713.97
2023-04-27T07:43:10.613Z,98691.88
2023-04-27T07:48:32.673Z,98757.00
2023-04-27T07:53:36.065Z,98746.50
2023-04-27T07:58:38.556Z,98644.28
2023-04-27T08:03:41.178Z,98573.06
2023-04-27T08:08:43.742Z,98737.34
2023-04-27T08:13:46.116Z,98717.38
2023-04-27T08:18:50.114Z,98699.41
2023-04-27T08:23:52.528Z,98713.16
2023-04-27T08:28:56.754Z,98631.84
2023-04-27T08:33:59.466Z,98616.59
2023-04-27T08:39:01.914Z,98691.22
2023-04-27T08:44:08.243Z,98481.19
2023-04-27T08:49:11.119Z,98665.13
2023-04-27T08:54:14.110Z,98342.19
2023-04-27T08:59:18.148Z,98718.19
2023-04-27T09:04:21.123Z,98658.56
2023-04-27T09:09:25.407Z,98735.81
2023-04-27T09:14:27.868Z,98738.19
2023-04-27T09:19:31.120Z,98635.22
2023-04-27T09:24:34.573Z,98607.91
2023-04-27T09:29:38.678Z,98727.06
2023-04-27T09:34:41.663Z,98734.47
2023-04-27T09:39:46.137Z,98368.09
2023-04-27T09:44:48.815Z,98723.97
2023-04-27T09:49:52.981Z,98618.28
2023-04-27T09:54:58.545Z,98725.28
2023-04-27T10:00:11.258Z,98641.72
2023-04-27T10:05:26.062Z,98723.34
2023-04-27T10:10:28.837Z,98721.84
2023-04-27T10:15:31.251Z,98636.13
2023-04-27T10:20:38.175Z,98664.13
2023-04-27T10:25:42.256Z,98729.81
2023-04-27T10:30:47.495Z,98711.09
2023-04-27T10:35:57.996Z,98727.78
2023-04-27T10:41:02.547Z,98752.38
2023-04-27T10:46:10.599Z,98655.56
2023-04-27T10:51:17.925Z,98701.16
2023-04-27T10:56:24.581Z,98715.34
2023-04-27T11:01:28.533Z,98727.75
2023-04-27T11:06:35.256Z,98736.50
2023-04-27T11:11:37.986Z,98641.22
2023-04-27T11:16:46.911Z,98737.81
2023-04-27T11:21:49.530Z,98711.00
2023-04-27T11:26:53.650Z,98730.94
2023-04-27T11:31:56.089Z,98696.56
2023-04-27T11:37:17.961Z,98738.00
2023-04-27T11:42:26.202Z,98703.19
2023-04-27T11:47:30.984Z,98693.78
2023-04-27T11:52:35.267Z,98743.41
2023-04-27T11:57:38.888Z,98749.34
2023-04-27T12:02:42.457Z,98749.59
2023-04-27T12:07:45.338Z,98739.59
2023-04-27T12:12:47.680Z,98689.53
2023-04-27T12:17:50.078Z,98591.38
2023-04-27T12:22:52.478Z,98734.13
2023-04-27T12:27:56.303Z,98737.22
2023-04-27T12:33:00.734Z,98658.56
2023-04-27T12:38:03.959Z,98708.31
2023-04-27T12:43:07.957Z,98699.81
2023-04-27T12:48:10.472Z,98728.84
2023-04-27T12:53:12.966Z,98652.16
2023-04-27T12:58:15.308Z,98662.81
2023-04-27T13:03:17.852Z,98675.44
2023-04-27T13:08:21.741Z,98723.97
2023-04-27T13:13:24.135Z,98710.06
2023-04-27T13:18:26.738Z,98632.97
2023-04-27T13:23:29.116Z,98698.84
2023-04-27T13:28:32.491Z,98722.63
2023-04-27T13:33:42.482Z,98719.44
2023-04-27T13:38:44.796Z,98652.78
2023-04-27T13:43:47.786Z,98592.84
2023-04-27T13:48:50.312Z,98475.13
2023-04-27T13:53:52.642Z,98684.09
2023-04-27T13:58:54.996Z,98552.13
2023-04-27T14:03:58.012Z,98631.25
2023-04-27T14:09:00.468Z,98707.91
2023-04-27T14:14:02.910Z,98683.94
2023-04-27T14:19:05.439Z,98693.72
2023-04-27T14:24:07.937Z,98690.78
2023-04-27T14:29:14.353Z,98671.44
2023-04-27T14:34:17.978Z,98717.56
2023-04-27T14:39:21.892Z,98640.66
2023-04-27T14:44:24.599Z,98734.38
2023-04-27T14:49:27.132Z,98723.50
2023-04-27T14:54:29.922Z,98687.84
2023-04-27T14:59:34.471Z,98732.94
2023-04-27T15:04:38.028Z,98738.81
2023-04-27T15:09:40.389Z,98601.78
2023-04-27T15:14:42.705Z,98672.22
2023-04-27T15:19:45.081Z,98730.69
2023-04-27T15:24:47.577Z,98693.28
2023-04-27T15:29:50.013Z,98666.25
2023-04-27T15:34:52.410Z,98626.78
2023-04-27T15:39:56.789Z,98597.22
2023-04-27T15:45:00.851Z,98656.09
2023-04-27T15:50:04.841Z,98738.09
2023-04-27T15:55:08.848Z,98703.34
2023-04-27T16:00:12.358Z,98697.13
2023-04-27T16:05:15.525Z,98751.53
2023-04-27T16:10:17.913Z,98710.78
2023-04-27T16:15:20.444Z,98756.78
2023-04-27T16:20:25.153Z,98737.50
2023-04-27T16:25:27.752Z,98713.84
2023-04-27T16:30:31.254Z,98773.84
2023-04-27T16:35:34.473Z,98702.78
2023-04-27T16:40:36.965Z,98790.47
2023-04-27T16:45:42.026Z,98784.06
2023-04-27T16:50:44.971Z,98677.34
2023-04-27T16:55:47.538Z,98686.66
2023-04-27T17:00:50.035Z,98678.69
2023-04-27T17:05:52.915Z,98707.09
2023-04-27T17:10:55.442Z,98518.53
2023-04-27T17:15:58.050Z,98647.66
2023-04-27T17:21:01.180Z,98788.16
2023-04-27T17:26:03.628Z,98772.41
2023-04-27T17:31:06.257Z,98785.75
2023-04-27T17:36:11.987Z,98809.38
2023-04-27T17:41:14.861Z,98666.16
2023-04-27T17:46:18.119Z,98775.22
2023-04-27T17:51:20.574Z,98791.78
2023-04-27T17:56:23.865Z,98795.78
2023-04-27T18:01:26.380Z,98746.19
2023-04-27T18:06:29.306Z,98711.56
2023-04-27T18:11:31.864Z,98791.13
2023-04-27T18:16:34.437Z,98786.13
2023-04-27T18:21:37.042Z,98821.06
2023-04-27T18:26:39.774Z,98770.25
2023-04-27T18:31:42.298Z,98731.84
2023-04-27T18:36:51.489Z,98745.91
2023-04-27T18:41:57.686Z,98689.31
2023-04-27T18:47:01.269Z,98803.28
2023-04-27T18:52:03.728Z,98773.31
2023-04-27T18:57:06.643Z,98677.13
2023-04-27T19:02:09.335Z,98729.00
2023-04-27T19:07:11.827Z,98758.44
2023-04-27T19:12:15.048Z,98790.78
2023-04-27T19:17:17.964Z,98794.25
2023-04-27T19:22:20.445Z,98790.09
2023-04-27T19:27:23.116Z,98757.38
2023-04-27T19:32:27.943Z,98692.22
2023-04-27T19:37:30.591Z,98734.59
2023-04-27T19:42:32.943Z,98733.88
2023-04-27T19:47:35.326Z,98609.66
2023-04-27T19:52:37.696Z,98733.16
2023-04-27T19:57:40.038Z,98735.88
2023-04-27T20:02:42.621Z,98761.91
2023-04-27T20:07:50.329Z,98785.38
2023-04-27T20:12:56.675Z,98740.63
2023-04-27T20:18:00.857Z,98688.06
2023-04-27T20:23:03.278Z,98784.84
2023-04-27T20:28:05.656Z,98725.47
2023-04-27T20:33:13.327Z,98705.53
2023-04-27T20:38:36.176Z,98729.72
2023-04-27T20:43:40.630Z,98735.16
2023-04-27T20:48:43.035Z,98758.44
2023-04-27T20:53:47.079Z,98761.13
2023-04-27T20:58:49.487Z,98722.19
2023-04-27T21:03:52.799Z,98787.13
2023-04-27T21:08:55.240Z,98752.59
2023-04-27T21:13:57.925Z,98795.06
2023-04-27T21:19:00.375Z,98819.75
2023-04-27T21:24:19.344Z,98814.56
2023-04-27T21:29:22.640Z,98740.16
2023-04-27T21:34:25.100Z,98769.63
2023-04-27T21:39:27.417Z,98732.47
2023-04-27T21:44:29.892Z,98759.28
2023-04-27T21:49:32.685Z,98716.34
2023-04-27T21:54:35.170Z,98725.78
2023-04-27T21:59:37.625Z,98744.41
2023-04-27T22:04:40.316Z,98803.09
2023-04-27T22:09:42.768Z,98799.75
2023-04-27T22:14:47.213Z,98718.66
2023-04-27T22:19:49.548Z,98800.91
2023-04-27T22:24:52.037Z,98693.88
2023-04-27T22:29:54.441Z,98774.50
2023-04-27T22:34:57.580Z,98715.78
2023-04-27T22:40:00.230Z,98764.38
2023-04-27T22:45:02.670Z,98647.00
2023-04-27T22:50:07.883Z,98757.72
2023-04-27T22:55:13.255Z,98755.28
2023-04-27T23:00:16.566Z,98721.72
2023-04-27T23:05:18.923Z,98727.84
2023-04-27T23:10:21.812Z,98766.94
2023-04-27T23:15:24.411Z,98783.47
2023-04-27T23:20:29.085Z,98768.03
2023-04-27T23:25:34.975Z,98685.22
2023-04-27T23:30:37.370Z,98661.03
2023-04-27T23:35:39.742Z,98663.72
2023-04-27T23:40:42.205Z,98735.50
2023-04-27T23:45:53.762Z,98657.00
2023-04-27T23:51:01.255Z,98721.88
2023-04-27T23:56:03.610Z,98749.56
